createdAt,value
2023-05-07T00:05:00.144Z,-0.06
2023-05-07T00:10:03.469Z,-0.18
2023-05-07T00:15:07.866Z,-0.25
2023-05-07T00:20:11.376Z,-0.33
2023-05-07T00:25:14.090Z,-0.20
2023-05-07T00:30:16.620Z,-0.22
2023-05-07T00:35:18.866Z,-0.58
2023-05-07T00:40:21.219Z,-0.79
2023-05-07T00:45:26.560Z,-0.37
2023-05-07T00:50:29.848Z,-0.33
2023-05-07T00:55:32.226Z,-0.71
2023-05-07T01:00:34.984Z,-0.61
2023-05-07T01:05:37.472Z,-1.67
2023-05-07T01:10:44.248Z,-1.01
2023-05-07T01:15:46.709Z,-0.48
2023-05-07T01:20:49.087Z,-0.76
2023-05-07T01:25:55.314Z,-0.52
2023-05-07T01:31:05.604Z,-0.79
2023-05-07T01:36:10.054Z,-0.56
2023-05-07T01:41:14.033Z,-1.17
2023-05-07T01:46:17.297Z,-0.66
2023-05-07T01:51:21.251Z,-0.86
2023-05-07T01:56:23.702Z,-0.87
2023-05-07T02:01:26.602Z,-1.37
2023-05-07T02:06:29.570Z,-1.12
2023-05-07T02:11:37.304Z,-0.98
2023-05-07T02:16:39.758Z,-1.20
2023-05-07T02:21:43.367Z,-0.88
2023-05-07T02:26:45.646Z,-0.84
2023-05-07T02:31:52.061Z,-1.00
2023-05-07T02:36:54.442Z,-0.84
2023-05-07T02:42:00.236Z,-0.84
2023-05-07T02:47:02.702Z,-1.68
2023-05-07T02:52:05.773Z,-1.47
2023-05-07T02:57:08.290Z,-1.50
2023-05-07T03:02:11.139Z,-1.23
2023-05-07T03:07:13.662Z,-1.33
2023-05-07T03:12:16.171Z,-0.55
2023-05-07T03:17:18.683Z,-1.35
2023-05-07T03:22:21.812Z,-0.39
2023-05-07T03:27:24.200Z,-1.16
2023-05-07T03:32:28.870Z,-0.69
2023-05-07T03:37:31.840Z,-0.64
2023-05-07T03:42:34.456Z,-0.58
2023-05-07T03:47:37.177Z,-0.41
2023-05-07T03:52:39.929Z,0.36
2023-05-07T03:57:44.080Z,0.71
2023-05-07T04:02:46.795Z,0.71
2023-05-07T04:07:51.652Z,1.05
2023-05-07T04:12:59.784Z,0.46
2023-05-07T04:18:03.976Z,1.16
2023-05-07T04:23:06.698Z,1.42
2023-05-07T04:28:09.189Z,1.38
2023-05-07T04:33:12.953Z,1.82
2023-05-07T04:38:19.709Z,1.88
2023-05-07T04:43:24.965Z,1.87
2023-05-07T04:48:27.869Z,2.36
2023-05-07T04:53:30.395Z,2.12
2023-05-07T04:58:33.895Z,2.65
2023-05-07T05:03:37.076Z,1.98
2023-05-07T05:08:39.861Z,2.93
2023-05-07T05:13:42.471Z,2.99
2023-05-07T05:18:49.959Z,2.91
2023-05-07T05:23:57.160Z,3.44
2023-05-07T05:29:01.380Z,3.00
2023-05-07T05:34:06.084Z,3.76
2023-05-07T05:39:09.972Z,3.33
2023-05-07T05:44:12.540Z,3.82
2023-05-07T05:49:18.128Z,4.24
2023-05-07T05:54:20.978Z,3.77
2023-05-07T05:59:24.429Z,3.95
2023-05-07T06:04:28.710Z,3.70
2023-05-07T06:09:32.036Z,4.13
2023-05-07T06:14:34.481Z,4.35
2023-05-07T06:19:37.206Z,4.18
2023-05-07T06:24:40.412Z,4.52
2023-05-07T06:29:44.187Z,4.13
2023-05-07T06:34:50.931Z,4.68
2023-05-07T06:39:53.661Z,4.63
2023-05-07T06:44:56.396Z,5.17
2023-05-07T06:49:59.133Z,4.75
2023-05-07T06:55:07.216Z,5.45
2023-05-07T07:00:11.610Z,5.02
2023-05-07T07:05:23.308Z,4.44
2023-05-07T07:10:26.324Z,5.77
2023-05-07T07:15:30.521Z,5.83
2023-05-07T07:20:34.594Z,5.95
2023-05-07T07:25:37.304Z,5.92
2023-05-07T07:30:43.147Z,6.17
2023-05-07T07:35:46.550Z,5.34
2023-05-07T07:40:49.281Z,6.07
2023-05-07T07:45:52.488Z,6.10
2023-05-07T07:50:56.035Z,6.23
2023-05-07T07:55:59.827Z,6.56
2023-05-07T08:01:06.470Z,6.76
2023-05-07T08:06:09.302Z,6.67
2023-05-07T08:11:12.605Z,6.95
2023-05-07T08:16:15.905Z,6.81
2023-05-07T08:21:18.708Z,6.89
2023-05-07T08:26:21.782Z,6.90
2023-05-07T08:31:24.603Z,7.08
2023-05-07T08:36:27.531Z,7.25
2023-05-07T08:41:30.779Z,7.62
2023-05-07T08:46:34.057Z,7.24
2023-05-07T08:51:38.325Z,7.45
2023-05-07T08:56:41.262Z,7.67
2023-05-07T09:01:44.226Z,7.73
2023-05-07T09:06:49.369Z,7.65
2023-05-07T09:12:00.437Z,7.93
2023-05-07T09:17:04.919Z,7.62
2023-05-07T09:22:11.457Z,7.20
2023-05-07T09:27:24.676Z,8.12
2023-05-07T09:32:29.883Z,7.91
2023-05-07T09:37:34.312Z,8.06
2023-05-07T09:42:37.274Z,8.43
2023-05-07T09:47:42.060Z,8.41
2023-05-07T09:52:45.832Z,8.58
2023-05-07T09:57:51.017Z,8.95
2023-05-07T10:02:54.238Z,8.65
2023-05-07T10:08:07.987Z,8.24
2023-05-07T10:13:13.424Z,9.18
2023-05-07T10:18:24.925Z,8.98
2023-05-07T10:23:29.027Z,8.91
2023-05-07T10:28:38.999Z,9.04
2023-05-07T10:33:44.194Z,9.00
2023-05-07T10:38:47.873Z,8.69
2023-05-07T10:43:53.306Z,8.38
2023-05-07T10:49:10.020Z,9.25
2023-05-07T10:54:32.505Z,9.35
2023-05-07T10:59:43.482Z,9.30
2023-05-07T11:05:20.451Z,9.38
2023-05-07T11:10:25.068Z,9.52
2023-05-07T11:15:39.110Z,9.04
2023-05-07T11:20:53.009Z,9.58
2023-05-07T11:26:17.222Z,9.69
2023-05-07T11:31:27.134Z,9.80
2023-05-07T11:36:33.408Z,9.53
2023-05-07T11:41:38.810Z,9.54
2023-05-07T11:46:44.727Z,9.30
2023-05-07T11:51:48.035Z,9.24
2023-05-07T11:56:50.656Z,8.83
2023-05-07T12:01:53.126Z,8.82
2023-05-07T12:06:57.081Z,9.10
2023-05-07T12:12:04.881Z,8.86
2023-05-07T12:17:10.853Z,9.12
2023-05-07T12:22:13.750Z,9.20
2023-05-07T12:27:16.896Z,8.66
2023-05-07T12:32:20.798Z,9.19
2023-05-07T12:37:29.051Z,9.11
2023-05-07T12:42:41.959Z,9.42
2023-05-07T12:47:48.102Z,9.32
2023-05-07T12:52:50.821Z,9.55
2023-05-07T12:57:54.337Z,9.10
2023-05-07T13:03:00.093Z,9.39
2023-05-07T13:08:02.467Z,9.47
2023-05-07T13:13:04.933Z,9.55
2023-05-07T13:18:07.742Z,9.50
2023-05-07T13:23:10.260Z,9.34
2023-05-07T13:28:13.301Z,9.95
2023-05-07T13:33:16.935Z,9.79
2023-05-07T13:38:19.493Z,9.82
2023-05-07T13:43:21.972Z,10.16
2023-05-07T13:48:24.441Z,10.16
2023-05-07T13:53:26.822Z,10.30
2023-05-07T13:58:29.182Z,10.43
2023-05-07T14:03:33.304Z,10.31
2023-05-07T14:08:36.155Z,10.06
2023-05-07T14:13:40.938Z,9.26
2023-05-07T14:18:43.490Z,9.63
2023-05-07T14:23:45.864Z,9.49
2023-05-07T14:28:48.405Z,8.81
2023-05-07T14:33:51.917Z,9.56
2023-05-07T14:39:00.477Z,9.52
2023-05-07T14:44:05.283Z,8.91
2023-05-07T14:49:08.179Z,9.55
2023-05-07T14:54:10.570Z,9.18
2023-05-07T14:59:13.202Z,9.50
2023-05-07T15:04:16.065Z,8.88
2023-05-07T15:09:19.105Z,7.96
2023-05-07T15:14:23.262Z,9.22
2023-05-07T15:19:30.204Z,8.69
2023-05-07T15:24:32.728Z,8.09
2023-05-07T15:29:35.215Z,8.86
2023-05-07T15:34:38.734Z,8.97
2023-05-07T15:39:44.132Z,8.96
2023-05-07T15:44:46.539Z,8.79
2023-05-07T15:49:48.912Z,8.95
2023-05-07T15:54:51.321Z,8.73
2023-05-07T15:59:54.448Z,8.55
2023-05-07T16:04:59.825Z,8.80
2023-05-07T16:10:02.990Z,8.25
2023-05-07T16:15:07.299Z,8.39
2023-05-07T16:20:12.581Z,8.19
2023-05-07T16:25:15.410Z,8.22
2023-05-07T16:30:17.880Z,8.52
2023-05-07T16:35:20.195Z,8.00
2023-05-07T16:40:26.007Z,8.33
2023-05-07T16:45:28.406Z,8.30
2023-05-07T16:50:31.898Z,8.12
2023-05-07T16:55:39.102Z,8.14
2023-05-07T17:00:50.545Z,7.83
2023-05-07T17:05:53.881Z,8.16
2023-05-07T17:10:56.294Z,8.08
2023-05-07T17:15:58.858Z,7.62
2023-05-07T17:21:01.451Z,7.71
2023-05-07T17:26:03.877Z,7.38
2023-05-07T17:31:06.320Z,7.31
2023-05-07T17:36:09.081Z,7.71
2023-05-07T17:41:11.733Z,7.20
2023-05-07T17:46:14.291Z,7.22
2023-05-07T17:51:16.659Z,7.29
2023-05-07T17:56:18.973Z,7.19
2023-05-07T18:01:21.543Z,7.04
2023-05-07T18:06:23.995Z,6.90
2023-05-07T18:11:28.350Z,6.65
2023-05-07T18:16:30.916Z,6.40
2023-05-07T18:21:33.504Z,6.36
2023-05-07T18:26:35.904Z,6.37
2023-05-07T18:31:38.348Z,6.09
2023-05-07T18:36:41.186Z,5.40
2023-05-07T18:41:45.580Z,6.01
2023-05-07T18:46:49.069Z,5.87
2023-05-07T18:51:51.608Z,5.41
2023-05-07T18:56:54.039Z,5.64
2023-05-07T19:01:58.163Z,5.52
2023-05-07T19:07:03.548Z,5.42
2023-05-07T19:12:06.422Z,5.11
2023-05-07T19:17:08.957Z,5.19
2023-05-07T19:22:11.810Z,4.92
2023-05-07T19:27:14.388Z,4.83
2023-05-07T19:32:17.006Z,4.72
2023-05-07T19:37:23.197Z,4.12
2023-05-07T19:42:25.636Z,4.68
2023-05-07T19:47:28.003Z,4.15
2023-05-07T19:52:31.057Z,4.03
2023-05-07T19:57:33.520Z,4.39
2023-05-07T20:02:36.206Z,4.30
2023-05-07T20:07:39.337Z,3.87
2023-05-07T20:12:41.777Z,3.39
2023-05-07T20:17:44.341Z,3.84
2023-05-07T20:22:49.793Z,3.89
2023-05-07T20:27:52.249Z,3.15
2023-05-07T20:32:54.617Z,3.43
2023-05-07T20:37:57.358Z,3.31
2023-05-07T20:43:00.032Z,2.85
2023-05-07T20:48:02.447Z,2.78
2023-05-07T20:53:04.981Z,3.40
2023-05-07T20:58:07.279Z,3.18
2023-05-07T21:03:10.277Z,3.26
2023-05-07T21:08:13.092Z,3.01
2023-05-07T21:13:16.787Z,2.89
2023-05-07T21:18:19.679Z,2.75
2023-05-07T21:23:22.191Z,2.62
2023-05-07T21:28:24.531Z,2.67
2023-05-07T21:33:26.926Z,2.79
2023-05-07T21:38:29.384Z,2.71
2023-05-07T21:43:32.165Z,2.00
2023-05-07T21:48:35.903Z,2.58
2023-05-07T21:53:38.276Z,2.29
2023-05-07T21:58:40.664Z,1.90
2023-05-07T22:03:43.255Z,2.01
2023-05-07T22:08:45.694Z,2.29
2023-05-07T22:13:48.165Z,2.07
2023-05-07T22:18:50.398Z,1.89
2023-05-07T22:23:52.672Z,1.75
2023-05-07T22:28:54.991Z,1.73
2023-05-07T22:33:57.318Z,1.52
2023-05-07T22:38:59.726Z,1.77
2023-05-07T22:44:02.618Z,1.88
2023-05-07T22:49:05.436Z,1.81
2023-05-07T22:54:09.214Z,1.78
2023-05-07T22:59:11.508Z,1.31
2023-05-07T23:04:13.795Z,1.61
2023-05-07T23:09:16.110Z,1.06
2023-05-07T23:14:18.758Z,1.54
2023-05-07T23:19:21.113Z,1.19
2023-05-07T23:24:23.480Z,0.65
2023-05-07T23:29:25.766Z,1.39
2023-05-07T23:34:28.184Z,1.37
2023-05-07T23:39:30.950Z,1.32
2023-05-07T23:44:33.331Z,1.26
2023-05-07T23:49:35.761Z,1.02
2023-05-07T23:54:38.100Z,0.48
2023-05-07T23:59:40.372Z,0.93
